Portada
METAR-TAF:

METAR-TAF

Aeroports :

Bentonville Municipal Airport/Louise M Thaden Field

Bentonville, Arkansas, Estats Units d'Amèrica

latitud: 36-21N, longitud: 094-13W, altitud: 395 m

Observació

L'informe es va fer fa 24 minuts, a les 12:56 UTC
Vent 4 kt del Sud-Est
Temperatura 18°C
Humitat 68%
Pressió 1024 hPa
Visibilitat: 16.1 km
Cel clar

METAR: KVBT 301256Z AUTO 13004KT 10SM CLR 18/12 A3025 RMK AO2 SLP239 T01780122 TSNO

Hora: 08:20 (13:20 UTC)


TAF: manca

Observacions i pronòstics meteorològics de més de 4000 aeroports (METAR i TAF).

Les estacions disponibles són els punts grocs i vermells al mapa.

Posi el ratolí al punt desitjat per veure el nom de l'estació.

Feu clic per veure les observacions i els pronòstics meteorològics.

Per canviar el mapa: feu clic els botons verds amb una creu de color negre per apropar; al botó verd amb un guió per allunyar la imatge; o en les fletxes verdes per a mapes adjacents.


METAR-TAF: